North Haven, Australia

10:52 PM ACST on August 21, 2017 (GMT +0930)
Largs North | | Change Station

Elev 36 ft 34.82 °S, 138.49 °E | Updated 43 seconds ago

Partly Cloudy
Partly Cloudy
53.1 °F
Feels Like 53.1 °F
N
0.0
Wind Variable Wind from North
Gusts 0.0 mph

Today
High -- | Low -- °F
--% Chance of Precip.
Yesterday
High -- | Low -- °F
Precip. -- in
Pressure 30.06 in
Visibility 6.2 miles
Clouds Scattered Clouds 2000 ft
Mostly Cloudy 4400 ft
Dew Point 30 °F
Humidity 41%
Rainfall 0.06 in
Snow Depth Not available.
6:49 AM 5:49 PM
Waning Crescent, 0% visible
METAR YPAD 211300Z 00000KT 9999 SCT020 BKN044 10/08 Q1018 NOSIG
Pressure 30.06 in
Visibility 6.2 miles
Clouds Scattered Clouds 2000 ft
Mostly Cloudy 4400 ft
Dew Point 30 °F
Humidity 41%
Rainfall 0.06 in
Snow Depth Not available.
6:49 AM 5:49 PM
Waning Crescent, 0% visible
METAR YPAD 211300Z 00000KT 9999 SCT020 BKN044 10/08 Q1018 NOSIG

Get Severe Weather Alerts

Thanks for signing up!

Be on the lookout for a verification email in your inbox.

You'll start receiving the daily forecast at 6 AM.

×

10-Day Weather Forecast

×

Almanac

Astronomy

Aug. 21, 2017 Rise Set
Actual Time
Civil Twilight
Nautical Twilight
Astronomical Twilight
Moon
Length of Visible Light
Length of Day
Tomorrow will be .
, % of the Moon is Illuminated

Today's Extremes

Country Highs Country Lows

Community

WunderPhotos

Category 6

Welcome to Category 6. This is the collective home for Weather Underground's featured writeups by Dr. Jeff Masters (right), Bob Henson (left), Chris Burt, and other regular contributors.

Nearby

Air Quality

  Air Quality AQ Index Pollutant
Not available.

Snow Depth

Station Depth Elevation

Earthquake Activity

City Distance Mag. Time & Date
Minimum magnitude displayed is 2.5.

Coastal Water Temperatures

Place Temperature

Stations

Nearby Weather Stations

Station Location Temp. Windchill Dew Point Humidity Wind Precip. Elev Updated Type